N312YH -KSAN
Flight info
| Callsign | N312YH |
|---|---|
| Flight time | N/A |
| Altitude | VFR |
| Route | PATTERN |
| Aircraft | C172/L-VGD/C |
Departure
| Time | N/A |
|---|---|
| Airport | - |
Arrival
| Time | 2026-05-05 02:28 |
|---|---|
| Airport | San Diego International Airport (KSAN) |
| Time | Latitude | Longitude | Altitude | Speed | Heading |
|---|---|---|---|---|---|
| 2026-05-05 02:27 | 32.73312 | -117.17734 | 18 ft | 0 kts | 156° |
| 2026-05-05 02:29 | 32.73309 | -117.17734 | 18 ft | 0 kts | 192° |
| 2026-05-05 02:29 | 32.73307 | -117.17750 | 18 ft | 6 kts | 302° |
| 2026-05-05 02:30 | 32.73345 | -117.17835 | 19 ft | 16 kts | 301° |
| 2026-05-05 02:30 | 32.73358 | -117.17936 | 21 ft | 12 kts | 229° |
| 2026-05-05 02:30 | 32.73270 | -117.17980 | 18 ft | 14 kts | 191° |
| 2026-05-05 02:30 | 32.73215 | -117.17914 | 16 ft | 13 kts | 107° |
| 2026-05-05 02:31 | 32.73189 | -117.17803 | 18 ft | 15 kts | 105° |
| 2026-05-05 02:31 | 32.73157 | -117.17671 | 18 ft | 19 kts | 105° |
| 2026-05-05 02:31 | 32.73104 | -117.17561 | 17 ft | 2 kts | 147° |
| 2026-05-05 02:31 | 32.73103 | -117.17561 | 17 ft | 0 kts | 146° |
| 2026-05-05 02:33 | 32.73054 | -117.17543 | 17 ft | 14 kts | 206° |
| 2026-05-05 02:33 | 32.73044 | -117.17685 | 16 ft | 28 kts | 285° |
| 2026-05-05 02:33 | 32.73140 | -117.18093 | 38 ft | 68 kts | 285° |
| 2026-05-05 02:33 | 32.73276 | -117.18667 | 204 ft | 78 kts | 285° |
| 2026-05-05 02:34 | 32.73441 | -117.19305 | 413 ft | 82 kts | 287° |
| 2026-05-05 02:34 | 32.73590 | -117.19958 | 679 ft | 78 kts | 282° |
| 2026-05-05 02:34 | 32.73718 | -117.20574 | 898 ft | 79 kts | 284° |
| 2026-05-05 02:34 | 32.74012 | -117.21130 | 1111 ft | 85 kts | 319° |
| 2026-05-05 02:35 | 32.74618 | -117.21334 | 1310 ft | 98 kts | 356° |
| 2026-05-05 02:35 | 32.75293 | -117.21154 | 1480 ft | 99 kts | 13° |
| 2026-05-05 02:35 | 32.75855 | -117.20681 | 1503 ft | 107 kts | 59° |
| 2026-05-05 02:35 | 32.75936 | -117.19807 | 1557 ft | 109 kts | 103° |
| 2026-05-05 02:36 | 32.75790 | -117.18924 | 1613 ft | 108 kts | 105° |
| 2026-05-05 02:36 | 32.75606 | -117.18012 | 1521 ft | 118 kts | 105° |
| 2026-05-05 02:36 | 32.75397 | -117.17057 | 1470 ft | 120 kts | 104° |
| 2026-05-05 02:36 | 32.75208 | -117.16122 | 1482 ft | 110 kts | 106° |
| 2026-05-05 02:37 | 32.74858 | -117.15393 | 1352 ft | 100 kts | 150° |
| 2026-05-05 02:37 | 32.74245 | -117.15230 | 1228 ft | 88 kts | 194° |
| 2026-05-05 02:37 | 32.73650 | -117.15399 | 1076 ft | 85 kts | 202° |
| 2026-05-05 02:37 | 32.73163 | -117.15695 | 889 ft | 76 kts | 236° |
| 2026-05-05 02:38 | 32.72925 | -117.16286 | 589 ft | 80 kts | 259° |
| 2026-05-05 02:38 | 32.72908 | -117.16920 | 384 ft | 78 kts | 276° |
| 2026-05-05 02:38 | 32.73010 | -117.17549 | 147 ft | 74 kts | 285° |
| 2026-05-05 02:38 | 32.73134 | -117.18063 | 36 ft | 56 kts | 285° |
| 2026-05-05 02:39 | 32.73225 | -117.18429 | 19 ft | 44 kts | 286° |
| 2026-05-05 02:39 | 32.73341 | -117.18920 | 91 ft | 72 kts | 284° |
| 2026-05-05 02:39 | 32.73487 | -117.19516 | 278 ft | 78 kts | 286° |
| 2026-05-05 02:39 | 32.73637 | -117.20147 | 500 ft | 80 kts | 285° |
| 2026-05-05 02:40 | 32.73803 | -117.20776 | 706 ft | 81 kts | 290° |
| 2026-05-05 02:40 | 32.74240 | -117.21214 | 912 ft | 92 kts | 342° |
| 2026-05-05 02:40 | 32.74905 | -117.21102 | 1180 ft | 99 kts | 15° |
| 2026-05-05 02:40 | 32.75518 | -117.20778 | 1402 ft | 100 kts | 43° |
| 2026-05-05 02:41 | 32.75734 | -117.19990 | 1493 ft | 106 kts | 99° |
| 2026-05-05 02:41 | 32.75578 | -117.19120 | 1552 ft | 111 kts | 107° |
| 2026-05-05 02:41 | 32.75393 | -117.18212 | 1547 ft | 116 kts | 107° |
| 2026-05-05 02:41 | 32.75176 | -117.17267 | 1533 ft | 119 kts | 108° |
| 2026-05-05 02:42 | 32.74920 | -117.16330 | 1532 ft | 117 kts | 111° |
| 2026-05-05 02:42 | 32.74616 | -117.15483 | 1398 ft | 104 kts | 132° |
| 2026-05-05 02:42 | 32.74023 | -117.15109 | 1188 ft | 94 kts | 183° |
| 2026-05-05 02:42 | 32.73394 | -117.15223 | 988 ft | 87 kts | 199° |
| 2026-05-05 02:43 | 32.72955 | -117.15605 | 767 ft | 81 kts | 247° |
| 2026-05-05 02:43 | 32.72855 | -117.16256 | 561 ft | 77 kts | 267° |
| 2026-05-05 02:43 | 32.72872 | -117.16864 | 386 ft | 71 kts | 278° |
| 2026-05-05 02:43 | 32.72971 | -117.17388 | 210 ft | 63 kts | 284° |
| 2026-05-05 02:44 | 32.73079 | -117.17835 | 62 ft | 55 kts | 285° |
| 2026-05-05 02:44 | 32.73176 | -117.18231 | 20 ft | 42 kts | 288° |
| 2026-05-05 02:44 | 32.73237 | -117.18475 | 19 ft | 17 kts | 288° |
| 2026-05-05 02:44 | 32.73264 | -117.18587 | 20 ft | 13 kts | 284° |
| 2026-05-05 02:45 | 32.73294 | -117.18697 | 19 ft | 15 kts | 291° |
| 2026-05-05 02:45 | 32.73338 | -117.18798 | 17 ft | 13 kts | 318° |
| 2026-05-05 02:45 | 32.73405 | -117.18803 | 16 ft | 2 kts | 34° |
| 2026-05-05 02:45 | 32.73406 | -117.18802 | 16 ft | 0 kts | 2° |
| 2026-05-05 02:46 | 32.73421 | -117.18764 | 16 ft | 8 kts | 101° |
| 2026-05-05 02:46 | 32.73400 | -117.18678 | 17 ft | 14 kts | 105° |
| 2026-05-05 02:46 | 32.73369 | -117.18546 | 20 ft | 18 kts | 106° |
| 2026-05-05 02:46 | 32.73331 | -117.18390 | 19 ft | 22 kts | 107° |
| 2026-05-05 02:47 | 32.73284 | -117.18197 | 18 ft | 24 kts | 103° |
| 2026-05-05 02:47 | 32.73255 | -117.18012 | 18 ft | 21 kts | 65° |
| 2026-05-05 02:47 | 32.73355 | -117.17947 | 21 ft | 12 kts | 54° |
| 2026-05-05 02:47 | 32.73343 | -117.17856 | 19 ft | 11 kts | 157° |
| 2026-05-05 02:48 | 32.73333 | -117.17852 | 19 ft | 0 kts | 164° |